sensor_id;sensor_type;location;lat;lon;timestamp;pressure;altitude;pressure_sealevel;temperature;humidity
72961;BME280;61141;46.204;19.774;2022-09-13T00:01:34;100314.63;;;12.24;81.25
72961;BME280;61141;46.204;19.774;2022-09-13T00:04:37;100307.53;;;12.20;81.38
72961;BME280;61141;46.204;19.774;2022-09-13T00:07:40;100316.91;;;12.15;81.77
72961;BME280;61141;46.204;19.774;2022-09-13T00:10:44;100312.63;;;12.21;82.06
72961;BME280;61141;46.204;19.774;2022-09-13T00:13:46;100312.59;;;12.14;81.82
72961;BME280;61141;46.204;19.774;2022-09-13T00:16:49;100304.72;;;12.09;81.63
72961;BME280;61141;46.204;19.774;2022-09-13T00:19:52;100308.19;;;12.03;81.75
72961;BME280;61141;46.204;19.774;2022-09-13T00:22:55;100308.50;;;11.94;81.65
72961;BME280;61141;46.204;19.774;2022-09-13T00:26:05;100311.94;;;11.84;82.02
72961;BME280;61141;46.204;19.774;2022-09-13T00:29:08;100314.31;;;11.86;81.85
72961;BME280;61141;46.204;19.774;2022-09-13T00:32:10;100295.56;;;11.95;82.41
72961;BME280;61141;46.204;19.774;2022-09-13T00:35:14;100308.91;;;11.96;82.66
72961;BME280;61141;46.204;19.774;2022-09-13T00:38:16;100304.25;;;12.00;82.44
72961;BME280;61141;46.204;19.774;2022-09-13T00:41:19;100306.62;;;12.05;82.32
72961;BME280;61141;46.204;19.774;2022-09-13T00:44:46;100304.25;;;12.00;81.90
72961;BME280;61141;46.204;19.774;2022-09-13T00:47:59;100310.50;;;11.97;82.05
72961;BME280;61141;46.204;19.774;2022-09-13T00:51:05;100306.16;;;11.96;81.47
72961;BME280;61141;46.204;19.774;2022-09-13T00:54:11;100302.56;;;11.89;81.72
72961;BME280;61141;46.204;19.774;2022-09-13T00:57:18;100306.38;;;11.77;81.60
72961;BME280;61141;46.204;19.774;2022-09-13T01:00:23;100306.94;;;11.56;81.71
72961;BME280;61141;46.204;19.774;2022-09-13T01:03:28;100311.59;;;11.52;81.97
72961;BME280;61141;46.204;19.774;2022-09-13T01:06:34;100307.59;;;11.46;82.36
72961;BME280;61141;46.204;19.774;2022-09-13T01:09:42;100312.22;;;11.39;82.48
72961;BME280;61141;46.204;19.774;2022-09-13T01:13:00;100317.31;;;11.37;82.76
72961;BME280;61141;46.204;19.774;2022-09-13T01:16:06;100311.47;;;11.42;82.71
72961;BME280;61141;46.204;19.774;2022-09-13T01:19:09;100316.22;;;11.45;82.73
72961;BME280;61141;46.204;19.774;2022-09-13T01:39:47;100301.53;;;11.27;83.12
72961;BME280;61141;46.204;19.774;2022-09-13T01:46:22;100286.03;;;11.08;83.34
72961;BME280;61141;46.204;19.774;2022-09-13T01:49:32;100300.94;;;11.10;83.25
72961;BME280;61141;46.204;19.774;2022-09-13T01:53:04;100299.69;;;11.04;83.47
72961;BME280;61141;46.204;19.774;2022-09-13T01:56:37;100307.31;;;11.18;83.65
72961;BME280;61141;46.204;19.774;2022-09-13T01:59:47;100301.03;;;11.17;83.45
72961;BME280;61141;46.204;19.774;2022-09-13T02:06:11;100281.28;;;11.05;83.72
72961;BME280;61141;46.204;19.774;2022-09-13T02:09:21;100289.22;;;11.13;83.32
72961;BME280;61141;46.204;19.774;2022-09-13T02:12:28;100290.00;;;11.14;83.73
72961;BME280;61141;46.204;19.774;2022-09-13T02:15:46;100300.12;;;11.06;83.83
72961;BME280;61141;46.204;19.774;2022-09-13T02:18:55;100291.56;;;11.11;83.38
72961;BME280;61141;46.204;19.774;2022-09-13T02:22:02;100298.13;;;11.03;83.21
72961;BME280;61141;46.204;19.774;2022-09-13T02:25:16;100303.19;;;11.01;83.09
72961;BME280;61141;46.204;19.774;2022-09-13T02:28:26;100286.19;;;10.89;83.52
72961;BME280;61141;46.204;19.774;2022-09-13T02:31:34;100285.63;;;10.76;84.02
72961;BME280;61141;46.204;19.774;2022-09-13T02:34:45;100284.97;;;10.86;83.84
72961;BME280;61141;46.204;19.774;2022-09-13T02:37:57;100294.81;;;10.91;83.85
72961;BME280;61141;46.204;19.774;2022-09-13T02:47:55;100283.72;;;10.50;85.07
72961;BME280;61141;46.204;19.774;2022-09-13T02:51:24;100289.94;;;10.21;86.50
72961;BME280;61141;46.204;19.774;2022-09-13T02:54:38;100288.50;;;10.31;86.21
72961;BME280;61141;46.204;19.774;2022-09-13T03:00:56;100281.72;;;10.47;85.40
72961;BME280;61141;46.204;19.774;2022-09-13T03:03:59;100286.56;;;10.57;84.93
72961;BME280;61141;46.204;19.774;2022-09-13T03:07:02;100288.50;;;10.57;85.06
72961;BME280;61141;46.204;19.774;2022-09-13T03:10:10;100288.50;;;10.57;84.94
72961;BME280;61141;46.204;19.774;2022-09-13T03:27:42;100288.88;;;10.55;84.52
72961;BME280;61141;46.204;19.774;2022-09-13T03:31:08;100288.41;;;10.50;84.30
72961;BME280;61141;46.204;19.774;2022-09-13T03:34:19;100303.88;;;10.39;84.37
72961;BME280;61141;46.204;19.774;2022-09-13T03:37:32;100299.25;;;10.43;84.50
72961;BME280;61141;46.204;19.774;2022-09-13T03:40:43;100300.47;;;10.45;83.76
72961;BME280;61141;46.204;19.774;2022-09-13T03:43:49;100303.84;;;10.35;84.35
72961;BME280;61141;46.204;19.774;2022-09-13T03:46:56;100306.16;;;10.33;84.42
72961;BME280;61141;46.204;19.774;2022-09-13T03:50:03;100304.94;;;10.08;84.92
72961;BME280;61141;46.204;19.774;2022-09-13T03:53:10;100301.94;;;10.13;84.95
72961;BME280;61141;46.204;19.774;2022-09-13T03:56:15;100292.03;;;10.09;84.35
72961;BME280;61141;46.204;19.774;2022-09-13T03:59:18;100302.56;;;10.07;84.51
72961;BME280;61141;46.204;19.774;2022-09-13T04:02:23;100306.47;;;10.05;84.30
72961;BME280;61141;46.204;19.774;2022-09-13T04:05:27;100302.34;;;10.15;84.34
72961;BME280;61141;46.204;19.774;2022-09-13T04:08:33;100299.69;;;10.19;85.09
72961;BME280;61141;46.204;19.774;2022-09-13T04:11:36;100298.56;;;10.23;85.20
72961;BME280;61141;46.204;19.774;2022-09-13T04:14:41;100308.31;;;10.21;85.36
72961;BME280;61141;46.204;19.774;2022-09-13T04:17:45;100304.84;;;10.24;84.99
72961;BME280;61141;46.204;19.774;2022-09-13T04:20:56;100307.19;;;10.25;84.47
72961;BME280;61141;46.204;19.774;2022-09-13T04:23:59;100305.25;;;10.26;83.95
72961;BME280;61141;46.204;19.774;2022-09-13T04:27:02;100304.09;;;10.04;83.37
72961;BME280;61141;46.204;19.774;2022-09-13T04:30:06;100297.25;;;9.91;83.68
72961;BME280;61141;46.204;19.774;2022-09-13T04:33:09;100313.66;;;9.91;84.28
72961;BME280;61141;46.204;19.774;2022-09-13T04:36:12;100313.09;;;10.04;84.46
72961;BME280;61141;46.204;19.774;2022-09-13T04:39:15;100311.25;;;10.12;84.32
72961;BME280;61141;46.204;19.774;2022-09-13T04:42:18;100312.16;;;10.16;84.28
72961;BME280;61141;46.204;19.774;2022-09-13T04:45:21;100316.84;;;10.16;83.99
72961;BME280;61141;46.204;19.774;2022-09-13T04:48:24;100316.09;;;10.19;84.16
72961;BME280;61141;46.204;19.774;2022-09-13T04:51:26;100309.91;;;10.22;83.90
72961;BME280;61141;46.204;19.774;2022-09-13T04:54:29;100310.31;;;10.24;83.86
72961;BME280;61141;46.204;19.774;2022-09-13T04:57:32;100312.34;;;10.30;83.60
72961;BME280;61141;46.204;19.774;2022-09-13T05:00:35;100308.47;;;10.31;83.31
72961;BME280;61141;46.204;19.774;2022-09-13T05:03:38;100314.00;;;10.35;83.49
72961;BME280;61141;46.204;19.774;2022-09-13T05:06:41;100322.72;;;10.44;83.69
72961;BME280;61141;46.204;19.774;2022-09-13T05:09:44;100315.03;;;10.53;83.78
72961;BME280;61141;46.204;19.774;2022-09-13T05:12:47;100318.31;;;10.62;84.05
72961;BME280;61141;46.204;19.774;2022-09-13T05:15:54;100319.59;;;10.72;83.54
72961;BME280;61141;46.204;19.774;2022-09-13T05:18:58;100327.16;;;10.78;83.56
72961;BME280;61141;46.204;19.774;2022-09-13T05:22:01;100324.94;;;10.87;83.41
72961;BME280;61141;46.204;19.774;2022-09-13T05:25:05;100328.13;;;10.93;83.25
72961;BME280;61141;46.204;19.774;2022-09-13T05:28:08;100323.19;;;11.05;82.86
72961;BME280;61141;46.204;19.774;2022-09-13T05:34:21;100332.50;;;11.31;83.02
72961;BME280;61141;46.204;19.774;2022-09-13T05:37:24;100342.06;;;11.44;83.25
72961;BME280;61141;46.204;19.774;2022-09-13T05:40:26;100338.66;;;11.54;82.90
72961;BME280;61141;46.204;19.774;2022-09-13T05:43:33;100341.59;;;11.71;82.54
72961;BME280;61141;46.204;19.774;2022-09-13T05:46:36;100325.25;;;11.82;82.14
72961;BME280;61141;46.204;19.774;2022-09-13T05:49:39;100341.56;;;12.08;82.54
72961;BME280;61141;46.204;19.774;2022-09-13T05:53:02;100337.44;;;12.28;80.65
72961;BME280;61141;46.204;19.774;2022-09-13T05:56:07;100341.94;;;12.58;78.83
72961;BME280;61141;46.204;19.774;2022-09-13T05:59:14;100336.16;;;12.70;77.94
72961;BME280;61141;46.204;19.774;2022-09-13T06:02:17;100321.31;;;12.88;78.58
72961;BME280;61141;46.204;19.774;2022-09-13T06:05:20;100337.12;;;13.06;78.27
72961;BME280;61141;46.204;19.774;2022-09-13T06:08:24;100340.00;;;13.30;76.79
72961;BME280;61141;46.204;19.774;2022-09-13T06:11:27;100339.63;;;13.42;74.14
72961;BME280;61141;46.204;19.774;2022-09-13T06:14:30;100344.44;;;13.63;74.85
72961;BME280;61141;46.204;19.774;2022-09-13T06:17:33;100344.06;;;13.79;75.26
72961;BME280;61141;46.204;19.774;2022-09-13T06:20:36;100339.75;;;13.85;72.44
72961;BME280;61141;46.204;19.774;2022-09-13T06:23:39;100344.12;;;14.00;71.89
72961;BME280;61141;46.204;19.774;2022-09-13T06:26:41;100357.09;;;14.10;70.72
72961;BME280;61141;46.204;19.774;2022-09-13T06:29:44;100353.19;;;14.43;70.97
72961;BME280;61141;46.204;19.774;2022-09-13T06:32:47;100360.66;;;14.39;69.68
72961;BME280;61141;46.204;19.774;2022-09-13T06:35:50;100360.28;;;14.54;70.16
72961;BME280;61141;46.204;19.774;2022-09-13T06:38:52;100353.94;;;14.61;69.89
72961;BME280;61141;46.204;19.774;2022-09-13T06:41:55;100360.62;;;14.78;69.45
72961;BME280;61141;46.204;19.774;2022-09-13T06:44:59;100362.19;;;14.82;67.98
72961;BME280;61141;46.204;19.774;2022-09-13T06:48:02;100364.47;;;15.12;67.46
72961;BME280;61141;46.204;19.774;2022-09-13T06:51:13;100369.53;;;15.27;66.49
72961;BME280;61141;46.204;19.774;2022-09-13T06:54:17;100365.59;;;15.25;67.29
72961;BME280;61141;46.204;19.774;2022-09-13T06:57:19;100371.88;;;15.36;65.49
72961;BME280;61141;46.204;19.774;2022-09-13T07:00:23;100372.66;;;15.37;65.23
72961;BME280;61141;46.204;19.774;2022-09-13T07:03:26;100363.16;;;15.41;65.97
72961;BME280;61141;46.204;19.774;2022-09-13T07:06:34;100375.72;;;15.63;65.32
72961;BME280;61141;46.204;19.774;2022-09-13T07:09:37;100385.53;;;15.71;64.67
72961;BME280;61141;46.204;19.774;2022-09-13T07:12:40;100378.84;;;15.72;64.51
72961;BME280;61141;46.204;19.774;2022-09-13T07:15:43;100381.09;;;15.88;64.29
72961;BME280;61141;46.204;19.774;2022-09-13T07:18:51;100370.41;;;15.94;61.32
72961;BME280;61141;46.204;19.774;2022-09-13T07:21:55;100373.41;;;16.17;61.07
72961;BME280;61141;46.204;19.774;2022-09-13T07:24:58;100383.22;;;16.28;60.69
72961;BME280;61141;46.204;19.774;2022-09-13T07:28:03;100373.59;;;16.43;61.04
72961;BME280;61141;46.204;19.774;2022-09-13T07:31:14;100378.66;;;16.52;61.33
72961;BME280;61141;46.204;19.774;2022-09-13T07:34:19;100372.66;;;16.64;59.47
72961;BME280;61141;46.204;19.774;2022-09-13T07:37:22;100368.69;;;16.65;59.65
72961;BME280;61141;46.204;19.774;2022-09-13T07:40:26;100373.22;;;16.89;59.16
72961;BME280;61141;46.204;19.774;2022-09-13T07:43:28;100367.53;;;17.03;58.00
72961;BME280;61141;46.204;19.774;2022-09-13T07:46:32;100379.34;;;17.04;58.04
72961;BME280;61141;46.204;19.774;2022-09-13T07:49:37;100378.44;;;17.18;57.93
72961;BME280;61141;46.204;19.774;2022-09-13T07:52:40;100376.94;;;17.10;56.26
72961;BME280;61141;46.204;19.774;2022-09-13T07:55:43;100387.97;;;17.13;56.23
72961;BME280;61141;46.204;19.774;2022-09-13T07:58:48;100385.22;;;17.10;56.66
72961;BME280;61141;46.204;19.774;2022-09-13T08:01:51;100374.88;;;17.17;56.42
72961;BME280;61141;46.204;19.774;2022-09-13T08:04:54;100366.50;;;17.21;56.88
72961;BME280;61141;46.204;19.774;2022-09-13T08:07:57;100369.44;;;17.40;56.53
72961;BME280;61141;46.204;19.774;2022-09-13T08:11:01;100374.78;;;17.58;55.74
72961;BME280;61141;46.204;19.774;2022-09-13T08:14:06;100374.03;;;17.54;55.03
72961;BME280;61141;46.204;19.774;2022-09-13T08:17:10;100378.22;;;17.69;53.47
72961;BME280;61141;46.204;19.774;2022-09-13T08:20:12;100384.44;;;17.77;53.98
72961;BME280;61141;46.204;19.774;2022-09-13T08:23:16;100358.81;;;17.69;54.52
72961;BME280;61141;46.204;19.774;2022-09-13T08:26:18;100380.63;;;17.94;53.67
72961;BME280;61141;46.204;19.774;2022-09-13T08:29:21;100376.59;;;17.98;53.04
72961;BME280;61141;46.204;19.774;2022-09-13T08:32:26;100385.44;;;18.16;52.93
72961;BME280;61141;46.204;19.774;2022-09-13T08:35:30;100383.25;;;18.04;53.71
72961;BME280;61141;46.204;19.774;2022-09-13T08:38:33;100382.41;;;18.07;53.81
72961;BME280;61141;46.204;19.774;2022-09-13T08:44:44;100381.66;;;18.30;53.25
72961;BME280;61141;46.204;19.774;2022-09-13T08:47:55;100382.13;;;18.52;52.81
72961;BME280;61141;46.204;19.774;2022-09-13T08:51:06;100388.94;;;18.70;51.88
72961;BME280;61141;46.204;19.774;2022-09-13T08:54:14;100384.47;;;18.53;51.67
72961;BME280;61141;46.204;19.774;2022-09-13T08:57:20;100378.88;;;18.57;51.77
72961;BME280;61141;46.204;19.774;2022-09-13T09:00:38;100381.25;;;18.78;51.52
72961;BME280;61141;46.204;19.774;2022-09-13T09:03:50;100375.84;;;18.71;50.72
72961;BME280;61141;46.204;19.774;2022-09-13T09:07:07;100368.69;;;18.93;49.09
72961;BME280;61141;46.204;19.774;2022-09-13T09:10:19;100367.50;;;18.94;49.80
72961;BME280;61141;46.204;19.774;2022-09-13T09:13:34;100375.19;;;19.26;49.58
72961;BME280;61141;46.204;19.774;2022-09-13T09:16:48;100375.22;;;19.46;48.43
72961;BME280;61141;46.204;19.774;2022-09-13T09:20:15;100375.28;;;19.62;47.00
72961;BME280;61141;46.204;19.774;2022-09-13T09:23:22;100370.97;;;19.41;46.10
72961;BME280;61141;46.204;19.774;2022-09-13T09:26:29;100372.84;;;19.64;47.15
72961;BME280;61141;46.204;19.774;2022-09-13T09:29:32;100362.56;;;19.61;45.48
72961;BME280;61141;46.204;19.774;2022-09-13T09:36:11;100371.00;;;19.93;46.13
72961;BME280;61141;46.204;19.774;2022-09-13T09:39:17;100366.66;;;19.92;44.13
72961;BME280;61141;46.204;19.774;2022-09-13T09:42:25;100371.22;;;20.02;44.88
72961;BME280;61141;46.204;19.774;2022-09-13T09:45:32;100367.62;;;19.85;43.08
72961;BME280;61141;46.204;19.774;2022-09-13T09:48:42;100358.03;;;19.86;44.13
72961;BME280;61141;46.204;19.774;2022-09-13T09:51:46;100363.88;;;20.08;42.90
72961;BME280;61141;46.204;19.774;2022-09-13T09:54:50;100349.06;;;20.31;44.25
72961;BME280;61141;46.204;19.774;2022-09-13T10:01:02;100355.06;;;20.45;42.50
72961;BME280;61141;46.204;19.774;2022-09-13T10:04:21;100360.97;;;20.47;43.04
72961;BME280;61141;46.204;19.774;2022-09-13T10:07:32;100357.62;;;20.85;41.83
72961;BME280;61141;46.204;19.774;2022-09-13T10:10:43;100348.84;;;20.99;41.40
72961;BME280;61141;46.204;19.774;2022-09-13T10:14:03;100344.75;;;21.20;41.81
72961;BME280;61141;46.204;19.774;2022-09-13T10:17:27;100342.97;;;21.26;40.35
72961;BME280;61141;46.204;19.774;2022-09-13T10:20:31;100339.00;;;21.52;41.13
72961;BME280;61141;46.204;19.774;2022-09-13T10:23:35;100333.31;;;21.55;41.12
72961;BME280;61141;46.204;19.774;2022-09-13T10:26:38;100342.16;;;21.66;40.37
72961;BME280;61141;46.204;19.774;2022-09-13T10:29:46;100334.84;;;21.31;41.36
72961;BME280;61141;46.204;19.774;2022-09-13T10:32:57;100332.25;;;21.24;41.34
72961;BME280;61141;46.204;19.774;2022-09-13T10:36:02;100316.00;;;21.23;41.94
72961;BME280;61141;46.204;19.774;2022-09-13T10:39:12;100314.87;;;21.20;40.97
72961;BME280;61141;46.204;19.774;2022-09-13T10:42:21;100305.78;;;21.57;39.56
72961;BME280;61141;46.204;19.774;2022-09-13T10:45:28;100311.00;;;21.68;39.15
72961;BME280;61141;46.204;19.774;2022-09-13T10:48:46;100298.53;;;21.47;39.73
72961;BME280;61141;46.204;19.774;2022-09-13T10:51:57;100299.66;;;21.75;39.13
72961;BME280;61141;46.204;19.774;2022-09-13T10:58:22;100289.72;;;22.12;37.73
72961;BME280;61141;46.204;19.774;2022-09-13T11:01:39;100292.53;;;21.99;39.74
72961;BME280;61141;46.204;19.774;2022-09-13T11:11:55;100278.78;;;22.64;38.13
72961;BME280;61141;46.204;19.774;2022-09-13T11:36:13;100270.72;;;22.19;39.53
72961;BME280;61141;46.204;19.774;2022-09-13T11:39:37;100268.72;;;22.54;39.61
72961;BME280;61141;46.204;19.774;2022-09-13T11:43:15;100264.81;;;22.52;39.70
72961;BME280;61141;46.204;19.774;2022-09-13T11:56:20;100260.78;;;22.65;37.97
72961;BME280;61141;46.204;19.774;2022-09-13T11:59:39;100239.44;;;22.59;37.85
72961;BME280;61141;46.204;19.774;2022-09-13T12:02:50;100243.56;;;22.67;37.36
72961;BME280;61141;46.204;19.774;2022-09-13T12:06:04;100249.81;;;22.37;37.42
72961;BME280;61141;46.204;19.774;2022-09-13T12:09:59;100239.81;;;22.48;37.57
72961;BME280;61141;46.204;19.774;2022-09-13T12:12:43;100235.25;;;22.76;37.36
72961;BME280;61141;46.204;19.774;2022-09-13T12:15:58;100225.44;;;22.93;37.84
72961;BME280;61141;46.204;19.774;2022-09-13T12:22:26;100225.38;;;23.06;36.07
72961;BME280;61141;46.204;19.774;2022-09-13T12:25:40;100228.97;;;23.15;36.11
72961;BME280;61141;46.204;19.774;2022-09-13T12:28:50;100222.75;;;23.42;36.31
72961;BME280;61141;46.204;19.774;2022-09-13T12:31:59;100222.91;;;23.38;36.40
72961;BME280;61141;46.204;19.774;2022-09-13T12:45:31;100215.53;;;23.01;36.52
72961;BME280;61141;46.204;19.774;2022-09-13T12:52:23;100221.25;;;23.59;36.71
72961;BME280;61141;46.204;19.774;2022-09-13T12:55:47;100212.56;;;22.96;36.57
72961;BME280;61141;46.204;19.774;2022-09-13T13:02:40;100223.00;;;23.66;36.70
72961;BME280;61141;46.204;19.774;2022-09-13T13:05:52;100212.38;;;23.52;36.95
72961;BME280;61141;46.204;19.774;2022-09-13T13:09:02;100213.06;;;23.34;35.57
72961;BME280;61141;46.204;19.774;2022-09-13T13:12:06;100193.28;;;22.89;36.82
72961;BME280;61141;46.204;19.774;2022-09-13T13:18:42;100202.66;;;23.04;37.00
72961;BME280;61141;46.204;19.774;2022-09-13T13:21:45;100184.75;;;23.23;35.89
72961;BME280;61141;46.204;19.774;2022-09-13T13:24:48;100195.53;;;23.33;36.03
72961;BME280;61141;46.204;19.774;2022-09-13T13:27:51;100171.50;;;23.45;36.01
72961;BME280;61141;46.204;19.774;2022-09-13T13:30:57;100204.47;;;23.50;35.47
72961;BME280;61141;46.204;19.774;2022-09-13T13:40:24;100194.28;;;23.74;34.95
72961;BME280;61141;46.204;19.774;2022-09-13T13:43:28;100193.25;;;23.41;34.96
72961;BME280;61141;46.204;19.774;2022-09-13T13:46:32;100188.88;;;23.09;37.00
72961;BME280;61141;46.204;19.774;2022-09-13T13:56:07;100184.47;;;23.30;35.73
72961;BME280;61141;46.204;19.774;2022-09-13T13:59:30;100169.22;;;23.22;36.08
72961;BME280;61141;46.204;19.774;2022-09-13T14:09:05;100153.47;;;22.75;36.82
72961;BME280;61141;46.204;19.774;2022-09-13T14:22:12;100156.66;;;22.96;37.53
72961;BME280;61141;46.204;19.774;2022-09-13T14:28:21;100169.09;;;22.95;38.91
72961;BME280;61141;46.204;19.774;2022-09-13T14:31:25;100141.09;;;22.86;38.21
72961;BME280;61141;46.204;19.774;2022-09-13T14:34:32;100159.22;;;23.03;38.37
72961;BME280;61141;46.204;19.774;2022-09-13T14:37:37;100162.25;;;22.96;38.44
72961;BME280;61141;46.204;19.774;2022-09-13T14:40:47;100157.09;;;22.85;38.32
72961;BME280;61141;46.204;19.774;2022-09-13T14:43:50;100137.88;;;22.65;38.56
72961;BME280;61141;46.204;19.774;2022-09-13T14:47:02;100154.88;;;22.80;38.44
72961;BME280;61141;46.204;19.774;2022-09-13T14:50:14;100152.09;;;22.80;38.93
72961;BME280;61141;46.204;19.774;2022-09-13T14:53:21;100128.78;;;22.52;38.51
72961;BME280;61141;46.204;19.774;2022-09-13T14:56:35;100139.81;;;22.56;38.45
72961;BME280;61141;46.204;19.774;2022-09-13T14:59:48;100136.91;;;22.38;39.56
72961;BME280;61141;46.204;19.774;2022-09-13T15:02:55;100142.03;;;22.17;39.59
72961;BME280;61141;46.204;19.774;2022-09-13T15:06:02;100146.88;;;22.04;40.85
72961;BME280;61141;46.204;19.774;2022-09-13T15:12:24;100137.97;;;21.97;41.82
72961;BME280;61141;46.204;19.774;2022-09-13T15:18:37;100137.78;;;21.91;42.74
72961;BME280;61141;46.204;19.774;2022-09-13T15:21:40;100128.63;;;21.91;41.87
72961;BME280;61141;46.204;19.774;2022-09-13T15:24:52;100132.97;;;21.92;41.40
72961;BME280;61141;46.204;19.774;2022-09-13T15:27:56;100136.66;;;21.89;42.86
72961;BME280;61141;46.204;19.774;2022-09-13T15:31:00;100135.22;;;21.84;42.40
72961;BME280;61141;46.204;19.774;2022-09-13T15:37:28;100124.34;;;21.52;43.56
72961;BME280;61141;46.204;19.774;2022-09-13T15:40:41;100121.81;;;21.32;47.93
72961;BME280;61141;46.204;19.774;2022-09-13T15:43:47;100118.81;;;21.14;48.43
72961;BME280;61141;46.204;19.774;2022-09-13T15:46:53;100122.03;;;21.00;47.20
72961;BME280;61141;46.204;19.774;2022-09-13T15:49:56;100118.00;;;20.88;48.49
72961;BME280;61141;46.204;19.774;2022-09-13T15:53:00;100117.78;;;20.83;49.32
72961;BME280;61141;46.204;19.774;2022-09-13T15:56:03;100111.97;;;20.77;49.57
72961;BME280;61141;46.204;19.774;2022-09-13T15:59:12;100121.53;;;20.64;51.59
72961;BME280;61141;46.204;19.774;2022-09-13T16:02:35;100127.34;;;20.57;50.75
72961;BME280;61141;46.204;19.774;2022-09-13T16:05:38;100126.62;;;20.52;50.87
72961;BME280;61141;46.204;19.774;2022-09-13T16:08:41;100122.72;;;20.37;52.31
72961;BME280;61141;46.204;19.774;2022-09-13T16:11:45;100106.59;;;20.16;52.18
72961;BME280;61141;46.204;19.774;2022-09-13T16:14:50;100101.00;;;20.04;53.33
72961;BME280;61141;46.204;19.774;2022-09-13T16:17:53;100114.44;;;20.05;52.55
72961;BME280;61141;46.204;19.774;2022-09-13T16:20:56;100104.25;;;19.86;54.94
72961;BME280;61141;46.204;19.774;2022-09-13T16:23:58;100101.94;;;19.68;55.62
72961;BME280;61141;46.204;19.774;2022-09-13T16:27:01;100108.66;;;19.55;55.68
72961;BME280;61141;46.204;19.774;2022-09-13T16:30:05;100065.84;;;19.20;56.83
72961;BME280;61141;46.204;19.774;2022-09-13T16:33:08;100100.81;;;19.33;57.53
72961;BME280;61141;46.204;19.774;2022-09-13T16:36:11;100096.22;;;19.27;57.39
72961;BME280;61141;46.204;19.774;2022-09-13T16:39:14;100067.03;;;19.03;57.32
72961;BME280;61141;46.204;19.774;2022-09-13T16:42:17;100080.66;;;18.97;58.05
72961;BME280;61141;46.204;19.774;2022-09-13T16:45:20;100069.81;;;18.87;59.31
72961;BME280;61141;46.204;19.774;2022-09-13T16:48:23;100087.41;;;18.80;59.12
72961;BME280;61141;46.204;19.774;2022-09-13T16:51:26;100086.59;;;18.63;59.96
72961;BME280;61141;46.204;19.774;2022-09-13T16:54:29;100082.06;;;18.53;59.83
72961;BME280;61141;46.204;19.774;2022-09-13T16:57:32;100058.59;;;18.18;60.50
72961;BME280;61141;46.204;19.774;2022-09-13T17:00:35;100089.97;;;18.15;60.39
72961;BME280;61141;46.204;19.774;2022-09-13T17:03:39;100090.12;;;18.08;60.73
72961;BME280;61141;46.204;19.774;2022-09-13T17:06:42;100090.38;;;17.94;60.69
72961;BME280;61141;46.204;19.774;2022-09-13T17:09:46;100075.78;;;17.71;60.99
72961;BME280;61141;46.204;19.774;2022-09-13T17:12:51;100068.44;;;17.60;61.31
72961;BME280;61141;46.204;19.774;2022-09-13T17:15:54;100082.72;;;17.59;62.67
72961;BME280;61141;46.204;19.774;2022-09-13T17:19:10;100096.94;;;17.61;62.36
72961;BME280;61141;46.204;19.774;2022-09-13T17:22:13;100102.19;;;17.55;62.22
72961;BME280;61141;46.204;19.774;2022-09-13T17:25:17;100100.03;;;17.40;63.66
72961;BME280;61141;46.204;19.774;2022-09-13T17:28:22;100100.63;;;17.28;63.44
72961;BME280;61141;46.204;19.774;2022-09-13T17:31:25;100086.22;;;17.13;64.65
72961;BME280;61141;46.204;19.774;2022-09-13T17:34:28;100100.03;;;17.17;64.84
72961;BME280;61141;46.204;19.774;2022-09-13T17:37:32;100075.28;;;16.79;64.44
72961;BME280;61141;46.204;19.774;2022-09-13T17:40:35;100093.34;;;16.87;64.70
72961;BME280;61141;46.204;19.774;2022-09-13T17:43:38;100090.22;;;16.85;65.13
72961;BME280;61141;46.204;19.774;2022-09-13T17:46:42;100089.53;;;16.78;65.63
72961;BME280;61141;46.204;19.774;2022-09-13T17:49:45;100081.72;;;16.73;66.03
72961;BME280;61141;46.204;19.774;2022-09-13T17:52:49;100077.09;;;16.63;66.78
72961;BME280;61141;46.204;19.774;2022-09-13T17:55:52;100076.78;;;16.57;66.95
72961;BME280;61141;46.204;19.774;2022-09-13T17:58:59;100086.44;;;16.42;66.77
72961;BME280;61141;46.204;19.774;2022-09-13T18:02:11;100082.03;;;16.18;67.21
72961;BME280;61141;46.204;19.774;2022-09-13T18:05:14;100084.69;;;16.25;67.10
72961;BME280;61141;46.204;19.774;2022-09-13T18:08:17;100090.66;;;16.23;67.90
72961;BME280;61141;46.204;19.774;2022-09-13T18:11:20;100078.94;;;16.12;68.35
72961;BME280;61141;46.204;19.774;2022-09-13T18:14:23;100100.12;;;16.22;67.87
72961;BME280;61141;46.204;19.774;2022-09-13T18:17:29;100107.97;;;16.27;66.98
72961;BME280;61141;46.204;19.774;2022-09-13T18:20:31;100105.22;;;16.24;67.73
72961;BME280;61141;46.204;19.774;2022-09-13T18:23:40;100063.03;;;15.86;68.24
72961;BME280;61141;46.204;19.774;2022-09-13T18:26:42;100099.03;;;16.13;68.40
72961;BME280;61141;46.204;19.774;2022-09-13T18:29:45;100101.03;;;16.12;68.88
72961;BME280;61141;46.204;19.774;2022-09-13T18:32:49;100102.19;;;16.15;69.09
72961;BME280;61141;46.204;19.774;2022-09-13T18:35:55;100114.13;;;16.05;69.26
72961;BME280;61141;46.204;19.774;2022-09-13T18:38:59;100105.16;;;15.97;69.44
72961;BME280;61141;46.204;19.774;2022-09-13T18:42:04;100101.69;;;15.90;69.62
72961;BME280;61141;46.204;19.774;2022-09-13T18:45:08;100090.75;;;15.79;70.12
72961;BME280;61141;46.204;19.774;2022-09-13T18:48:11;100096.38;;;15.68;70.42
72961;BME280;61141;46.204;19.774;2022-09-13T18:51:16;100112.09;;;15.75;70.79
72961;BME280;61141;46.204;19.774;2022-09-13T18:54:20;100118.47;;;15.68;70.34